Time;durP1;ratioP1;P1;durP2;ratioP2;P2;SDS_P1;SDS_P2;PMS_P1;PMS_P2;Temp;Humidity;BMP_temperature;BMP_pressure;BME280_temperature;BME280_humidity;BME280_pressure;Samples;Min_cycle;Max_cycle;Signal;HPM_P1;HPM_P2
2023/10/03 00:00:32;;;;;;;2.57;2.33;;;15.30;99.90;;;;;;6254301;23;20598;-80
2023/10/03 00:03:01;;;;;;;4.50;3.67;;;15.30;99.90;;;;;;6254372;23;20445;-77
2023/10/03 00:05:31;;;;;;;2.37;1.47;;;15.20;99.90;;;;;;6254010;23;20648;-78
2023/10/03 00:08:04;;;;;;;1.03;1.03;;;15.10;99.90;;;;;;6255498;23;20685;-79
2023/10/03 00:10:38;;;;;;;0.70;0.70;;;15.10;99.90;;;;;;6256820;23;20404;-78
2023/10/03 00:13:11;;;;;;;1.20;1.20;;;15.20;99.90;;;;;;6254124;23;20375;-79
2023/10/03 00:15:43;;;;;;;1.23;1.23;;;15.30;99.90;;;;;;6251896;23;20374;-78
2023/10/03 00:18:14;;;;;;;3.80;1.93;;;15.40;99.90;;;;;;6249978;23;20377;-78
2023/10/03 00:20:42;;;;;;;1.77;1.67;;;15.30;99.90;;;;;;6248739;23;20755;-78
2023/10/03 00:23:10;;;;;;;1.80;1.40;;;15.20;99.90;;;;;;6222757;23;20389;-80
2023/10/03 00:25:38;;;;;;;1.00;1.00;;;15.30;99.90;;;;;;6223974;23;20399;-79
2023/10/03 00:28:06;;;;;;;1.90;1.80;;;15.30;99.90;;;;;;6224561;23;20378;-78
2023/10/03 00:30:36;;;;;;;2.20;2.10;;;15.40;99.90;;;;;;6223294;23;20756;-78
2023/10/03 00:33:04;;;;;;;3.13;2.43;;;15.40;99.90;;;;;;6250698;23;20708;-79
2023/10/03 00:35:32;;;;;;;2.50;2.30;;;15.40;99.90;;;;;;6249405;23;20379;-78
2023/10/03 00:38:00;;;;;;;1.47;1.37;;;15.40;99.90;;;;;;6249161;23;20472;-78
2023/10/03 00:40:28;;;;;;;2.03;1.93;;;15.30;99.90;;;;;;6249636;23;20383;-80
2023/10/03 00:43:01;;;;;;;3.93;3.63;;;15.20;99.90;;;;;;6223512;23;20401;-77
2023/10/03 00:45:29;;;;;;;1.17;1.17;;;15.20;99.90;;;;;;6249537;23;20423;-82
2023/10/03 00:47:58;;;;;;;2.43;2.27;;;15.20;99.90;;;;;;6222298;23;20591;-78
2023/10/03 00:50:31;;;;;;;18.03;4.40;;;15.10;99.90;;;;;;6248929;23;20360;-80
2023/10/03 00:53:05;;;;;;;1.60;1.50;;;15.00;99.90;;;;;;6222367;23;20363;-78
2023/10/03 00:55:33;;;;;;;2.00;1.90;;;15.00;99.90;;;;;;6249229;23;20412;-76
2023/10/03 01:00:45;;;;;;;1.20;1.20;;;14.90;99.90;;;;;;6249620;23;20472;-77
2023/10/03 01:03:31;;;;;;;1.20;1.20;;;14.80;99.90;;;;;;6252044;23;20776;-79
2023/10/03 01:06:18;;;;;;;1.00;1.00;;;14.80;99.90;;;;;;6253851;23;20401;-77
2023/10/03 01:08:47;;;;;;;1.27;1.27;;;14.80;99.90;;;;;;6226475;23;20795;-78
2023/10/03 01:11:17;;;;;;;1.43;1.43;;;14.80;99.90;;;;;;6222839;23;20447;-78
2023/10/03 01:13:54;;;;;;;2.53;1.43;;;14.80;99.90;;;;;;6252374;23;20387;-79
2023/10/03 01:16:32;;;;;;;0.90;0.90;;;14.70;99.90;;;;;;6229010;23;20410;-78
2023/10/03 01:19:07;;;;;;;1.33;1.23;;;14.80;99.90;;;;;;6256871;23;20401;-78
2023/10/03 01:21:34;;;;;;;1.23;1.23;;;14.80;99.90;;;;;;6251682;23;20436;-79
2023/10/03 01:24:04;;;;;;;1.53;1.30;;;14.80;99.90;;;;;;6224386;23;20440;-77
2023/10/03 01:26:34;;;;;;;13.03;2.70;;;14.70;99.90;;;;;;6250430;23;20401;-76
2023/10/03 01:29:02;;;;;;;1.07;1.07;;;14.70;99.90;;;;;;6250986;23;20813;-78
2023/10/03 01:31:30;;;;;;;1.63;1.57;;;14.80;99.90;;;;;;6251546;23;20401;-80
2023/10/03 01:33:59;;;;;;;1.57;1.57;;;14.70;99.90;;;;;;6252951;23;20407;-77
2023/10/03 01:36:26;;;;;;;2.70;2.00;;;14.70;99.90;;;;;;6257394;23;20371;-79
2023/10/03 01:38:54;;;;;;;1.03;1.03;;;14.60;99.90;;;;;;6240193;23;20629;-78
2023/10/03 01:41:20;;;;;;;2.67;1.73;;;14.50;99.90;;;;;;6270036;23;20427;-78
2023/10/03 01:43:48;;;;;;;2.43;2.33;;;14.40;99.90;;;;;;6269515;23;20389;-77
2023/10/03 01:46:17;;;;;;;2.27;2.17;;;14.40;99.90;;;;;;6259093;23;20417;-78
2023/10/03 01:48:45;;;;;;;0.80;0.80;;;14.40;99.90;;;;;;6253644;23;20735;-78
2023/10/03 01:51:12;;;;;;;2.60;2.50;;;14.40;99.90;;;;;;6252309;23;20363;-77
2023/10/03 01:53:40;;;;;;;1.83;1.73;;;14.30;99.90;;;;;;6253777;23;20405;-80
2023/10/03 01:56:08;;;;;;;0.87;0.87;;;14.40;99.90;;;;;;6226767;23;20471;-79
2023/10/03 01:58:37;;;;;;;2.10;2.00;;;14.40;99.90;;;;;;6252908;23;20484;-80
2023/10/03 02:01:04;;;;;;;1.50;1.40;;;14.50;99.90;;;;;;6253673;23;20473;-78
2023/10/03 02:03:32;;;;;;;1.83;1.73;;;14.30;99.90;;;;;;6251396;23;20806;-78
2023/10/03 02:06:00;;;;;;;1.23;1.23;;;14.20;99.90;;;;;;6250908;23;20440;-78
2023/10/03 02:08:27;;;;;;;0.80;0.80;;;14.20;99.90;;;;;;6250249;23;20809;-78
2023/10/03 02:10:55;;;;;;;1.20;1.20;;;14.20;99.90;;;;;;6250919;23;20388;-79
2023/10/03 02:13:22;;;;;;;5.10;4.50;;;14.20;99.90;;;;;;6250265;23;20400;-81
2023/10/03 02:15:52;;;;;;;2.37;2.20;;;14.10;99.90;;;;;;6251489;23;20397;-80
2023/10/03 02:18:21;;;;;;;1.37;1.37;;;14.20;99.90;;;;;;6225024;23;20397;-81
2023/10/03 02:20:52;;;;;;;0.60;0.60;;;14.20;99.90;;;;;;6250541;23;20976;-76
2023/10/03 02:23:23;;;;;;;4.70;4.33;;;14.20;99.90;;;;;;6251667;23;20756;-80
2023/10/03 02:26:12;;;;;;;3.27;3.07;;;14.20;99.90;;;;;;6252752;23;20765;-80
2023/10/03 02:28:40;;;;;;;2.60;2.40;;;14.10;99.90;;;;;;6255725;23;20397;-80
2023/10/03 02:31:08;;;;;;;1.60;1.50;;;14.10;99.90;;;;;;6254309;23;20393;-80
2023/10/03 02:33:42;;;;;;;2.60;2.40;;;14.10;99.90;;;;;;6255229;23;20420;-80
2023/10/03 02:36:10;;;;;;;1.03;1.03;;;14.10;99.90;;;;;;6228123;23;20360;-79
2023/10/03 02:38:37;;;;;;;1.33;1.33;;;14.10;99.90;;;;;;6252048;23;20408;-80
2023/10/03 02:41:12;;;;;;;1.70;1.60;;;14.10;99.90;;;;;;6251344;23;20454;-77
2023/10/03 02:43:42;;;;;;;2.37;2.17;;;14.10;99.90;;;;;;6250499;23;20384;-80
2023/10/03 02:46:13;;;;;;;1.20;1.20;;;14.10;99.90;;;;;;6225281;23;20651;-79
2023/10/03 02:48:44;;;;;;;1.67;1.57;;;14.10;99.90;;;;;;6250165;23;20457;-77
2023/10/03 02:51:14;;;;;;;0.83;0.83;;;14.00;99.90;;;;;;6249546;23;20443;-78
2023/10/03 02:53:41;;;;;;;0.93;0.93;;;14.00;99.90;;;;;;6250368;23;20368;-79
2023/10/03 02:56:08;;;;;;;2.27;2.17;;;13.90;99.90;;;;;;6251450;23;20417;-81
2023/10/03 02:58:35;;;;;;;3.30;3.10;;;14.10;99.90;;;;;;6251843;23;20622;-81
2023/10/03 03:01:03;;;;;;;0.97;0.97;;;13.80;99.90;;;;;;6252543;23;20397;-81
2023/10/03 03:03:32;;;;;;;4.10;1.87;;;13.70;99.90;;;;;;6259754;23;20377;-80
2023/10/03 03:06:03;;;;;;;1.00;1.00;;;13.80;99.90;;;;;;6235839;23;20419;-80
2023/10/03 03:08:31;;;;;;;1.50;1.40;;;13.80;99.90;;;;;;6252593;23;20397;-80
2023/10/03 03:11:00;;;;;;;1.47;1.37;;;13.90;99.90;;;;;;6255667;23;20398;-79
2023/10/03 03:13:35;;;;;;;1.20;1.20;;;14.00;99.90;;;;;;6256012;23;20420;-80
2023/10/03 03:16:04;;;;;;;1.17;1.17;;;14.00;99.90;;;;;;6229908;23;20397;-81
2023/10/03 03:18:41;;;;;;;1.33;1.33;;;14.00;99.90;;;;;;6253065;23;20397;-80
2023/10/03 03:21:15;;;;;;;0.80;0.80;;;14.00;99.90;;;;;;6250393;23;20803;-80
2023/10/03 03:23:55;;;;;;;0.70;0.70;;;14.20;99.90;;;;;;6223928;23;20378;-80
2023/10/03 03:26:35;;;;;;;0.70;0.70;;;14.20;99.90;;;;;;6223159;23;20448;-79
2023/10/03 03:29:19;;;;;;;2.43;2.27;;;14.10;99.90;;;;;;6249778;23;20453;-80
2023/10/03 03:31:49;;;;;;;4.00;2.90;;;14.20;99.90;;;;;;6250293;23;20355;-78
2023/10/03 03:34:16;;;;;;;2.00;1.90;;;14.10;99.90;;;;;;6249933;23;20404;-78
2023/10/03 03:36:46;;;;;;;1.40;1.33;;;14.20;99.90;;;;;;6249243;23;20371;-78
2023/10/03 03:39:20;;;;;;;0.70;0.70;;;14.10;99.90;;;;;;6250331;23;20401;-81
2023/10/03 03:41:49;;;;;;;2.03;1.93;;;14.10;99.90;;;;;;6249938;23;20377;-81
2023/10/03 03:44:18;;;;;;;0.60;0.60;;;14.20;99.90;;;;;;6249043;23;20401;-80
2023/10/03 03:46:46;;;;;;;0.73;0.73;;;14.10;99.90;;;;;;6249795;23;20407;-80
2023/10/03 03:49:14;;;;;;;1.43;1.43;;;14.00;99.90;;;;;;6222876;23;20793;-78
2023/10/03 03:51:41;;;;;;;0.70;0.70;;;14.00;99.90;;;;;;6247902;23;20510;-81
2023/10/03 03:54:12;;;;;;;1.63;1.53;;;14.00;99.90;;;;;;6252516;23;20393;-80
2023/10/03 03:56:40;;;;;;;1.47;1.47;;;13.90;99.90;;;;;;6252608;23;20378;-77
2023/10/03 03:59:09;;;;;;;1.23;1.23;;;13.90;99.90;;;;;;6249719;23;20405;-79
2023/10/03 04:01:36;;;;;;;1.10;1.10;;;13.90;99.90;;;;;;6254005;23;20398;-80
2023/10/03 04:04:07;;;;;;;1.30;1.23;;;13.80;99.90;;;;;;6253736;23;20417;-80
2023/10/03 04:06:33;;;;;;;1.03;1.03;;;13.70;99.90;;;;;;6254276;23;20466;-81
2023/10/03 04:09:01;;;;;;;0.60;0.60;;;13.70;99.90;;;;;;6253930;23;20720;-80
2023/10/03 04:11:35;;;;;;;0.87;0.87;;;13.60;99.90;;;;;;6254022;23;20621;-80
2023/10/03 04:14:04;;;;;;;1.03;0.97;;;13.60;99.90;;;;;;6225091;23;20722;-79
2023/10/03 04:16:38;;;;;;;2.60;2.40;;;13.60;99.90;;;;;;6222970;23;20424;-79
2023/10/03 04:19:05;;;;;;;4.10;1.50;;;13.50;99.90;;;;;;6222182;23;20528;-79
2023/10/03 04:21:33;;;;;;;1.03;0.87;;;13.50;99.90;;;;;;6222617;23;20388;-78
2023/10/03 04:24:00;;;;;;;0.60;0.60;;;13.50;99.90;;;;;;6250168;23;20542;-79
2023/10/03 04:26:28;;;;;;;1.03;1.03;;;13.30;99.90;;;;;;6223087;23;20486;-79
2023/10/03 04:28:55;;;;;;;2.70;2.50;;;13.40;99.90;;;;;;6248969;23;20776;-78
2023/10/03 04:31:22;;;;;;;1.47;1.47;;;13.40;99.90;;;;;;6223857;23;20486;-82
2023/10/03 04:33:49;;;;;;;0.97;0.93;;;13.40;99.90;;;;;;6250048;23;20401;-79
2023/10/03 04:36:17;;;;;;;1.63;1.53;;;13.30;99.90;;;;;;6250511;23;20413;-79
2023/10/03 04:38:44;;;;;;;1.77;1.67;;;13.40;99.90;;;;;;6250370;23;20393;-81
2023/10/03 04:41:12;;;;;;;5.55;2.95;;;13.30;99.90;;;;;;6249530;23;20401;-79
2023/10/03 04:43:39;;;;;;;1.77;1.67;;;13.40;99.90;;;;;;6223814;23;20175;-80
2023/10/03 04:46:08;;;;;;;0.80;0.80;;;13.50;99.90;;;;;;6250420;23;20406;-79
2023/10/03 04:48:37;;;;;;;2.40;2.20;;;13.50;99.90;;;;;;6250761;23;20406;-79
2023/10/03 04:51:05;;;;;;;2.05;1.75;;;13.50;99.90;;;;;;6251729;23;20792;-78
2023/10/03 04:53:32;;;;;;;0.90;0.90;;;13.40;99.90;;;;;;6251065;23;20504;-77
2023/10/03 04:56:00;;;;;;;2.78;2.65;;;13.40;99.90;;;;;;6252549;23;20428;-79
2023/10/03 04:58:27;;;;;;;7.40;2.67;;;13.40;99.90;;;;;;6252662;23;20225;-77
2023/10/03 05:00:54;;;;;;;2.53;1.80;;;13.50;99.90;;;;;;6251184;23;20393;-78
2023/10/03 05:03:24;;;;;;;1.00;1.00;;;13.50;99.90;;;;;;6225420;23;20397;-79
2023/10/03 05:05:52;;;;;;;0.90;0.90;;;13.50;99.90;;;;;;6250782;23;20813;-77
2023/10/03 05:08:20;;;;;;;1.90;1.80;;;13.50;99.90;;;;;;6251424;23;20371;-81
2023/10/03 05:10:48;;;;;;;4.50;4.00;;;13.50;99.90;;;;;;6252373;23;20386;-81
2023/10/03 05:13:16;;;;;;;1.27;1.27;;;13.60;99.90;;;;;;6252143;23;20397;-80
2023/10/03 05:15:44;;;;;;;1.60;1.50;;;13.60;99.90;;;;;;6252822;23;20400;-78
2023/10/03 05:18:11;;;;;;;1.87;1.77;;;13.80;99.90;;;;;;6253577;23;20443;-78
2023/10/03 05:20:39;;;;;;;0.90;0.90;;;14.00;99.90;;;;;;6252937;23;20447;-81
2023/10/03 05:23:06;;;;;;;1.03;1.03;;;14.00;99.90;;;;;;6250854;23;20451;-77
2023/10/03 05:25:42;;;;;;;1.23;1.23;;;13.90;99.90;;;;;;6252415;23;20411;-77
2023/10/03 05:28:11;;;;;;;0.93;0.93;;;13.90;99.90;;;;;;6253705;23;20622;-78
2023/10/03 05:30:38;;;;;;;2.33;2.00;;;13.90;99.90;;;;;;6225612;23;20401;-78
2023/10/03 05:33:06;;;;;;;3.73;2.17;;;13.90;99.90;;;;;;6251695;23;20375;-80
2023/10/03 05:35:34;;;;;;;11.63;1.97;;;14.00;99.90;;;;;;6227094;23;20459;-78
2023/10/03 05:38:08;;;;;;;1.43;1.43;;;13.90;99.90;;;;;;6253671;23;20395;-79
2023/10/03 05:40:36;;;;;;;0.70;0.70;;;14.10;99.90;;;;;;6255366;23;20632;-80
2023/10/03 05:43:04;;;;;;;0.90;0.90;;;14.20;99.90;;;;;;6256250;23;20375;-78
2023/10/03 05:45:36;;;;;;;2.40;2.30;;;14.30;99.90;;;;;;6249524;23;20428;-80
2023/10/03 05:48:04;;;;;;;2.70;2.60;;;14.20;99.90;;;;;;6250553;23;20401;-77
2023/10/03 05:50:34;;;;;;;0.87;0.87;;;14.40;99.90;;;;;;6251014;23;20530;-77
2023/10/03 05:53:06;;;;;;;10.60;4.57;;;14.40;99.90;;;;;;6250845;23;20408;-78
2023/10/03 05:55:33;;;;;;;2.50;2.30;;;14.40;99.90;;;;;;6252421;23;20474;-77
2023/10/03 05:58:00;;;;;;;5.93;3.03;;;14.60;99.90;;;;;;6251757;23;20406;-81
2023/10/03 06:00:30;;;;;;;1.67;1.27;;;14.60;99.90;;;;;;6225461;23;20432;-81
2023/10/03 06:02:58;;;;;;;4.07;3.70;;;14.60;99.90;;;;;;6254107;23;20602;-81
2023/10/03 06:05:26;;;;;;;1.87;1.77;;;14.90;99.90;;;;;;6256650;23;20429;-81
2023/10/03 06:07:54;;;;;;;1.57;1.57;;;15.10;99.90;;;;;;6253420;23;20375;-84
2023/10/03 06:10:22;;;;;;;5.17;3.50;;;15.50;99.90;;;;;;6259140;23;20412;-84
2023/10/03 06:12:52;;;;;;;0.90;0.90;;;15.80;99.90;;;;;;6238513;23;20400;-84
2023/10/03 06:15:19;;;;;;;0.70;0.70;;;16.00;99.90;;;;;;6261785;23;20385;-77
2023/10/03 06:17:47;;;;;;;1.57;1.47;;;16.10;99.90;;;;;;6255989;23;20386;-79
2023/10/03 06:20:14;;;;;;;2.40;2.30;;;16.00;99.90;;;;;;6254121;23;20397;-78
2023/10/03 06:22:42;;;;;;;1.83;1.57;;;16.10;99.90;;;;;;6253079;23;20357;-81
2023/10/03 06:25:10;;;;;;;1.83;1.70;;;16.40;99.90;;;;;;6249981;23;20424;-80
2023/10/03 06:27:38;;;;;;;2.13;2.00;;;16.70;99.90;;;;;;6223081;23;20597;-77
2023/10/03 06:30:06;;;;;;;1.47;1.37;;;16.80;99.90;;;;;;6251212;23;20479;-79
2023/10/03 06:32:34;;;;;;;0.80;0.80;;;16.80;99.90;;;;;;6250616;23;20401;-79
2023/10/03 06:35:04;;;;;;;2.00;1.83;;;16.90;99.90;;;;;;6251336;23;20396;-79
2023/10/03 06:37:33;;;;;;;0.90;0.90;;;17.00;99.90;;;;;;6249551;23;20408;-77
2023/10/03 06:40:04;;;;;;;1.10;1.10;;;17.00;99.90;;;;;;6249901;23;20401;-81
2023/10/03 06:42:35;;;;;;;0.80;0.80;;;17.10;99.90;;;;;;6250392;23;20453;-79
2023/10/03 06:45:03;;;;;;;2.10;1.73;;;17.20;99.90;;;;;;6250447;23;20391;-78
2023/10/03 06:47:33;;;;;;;1.43;1.43;;;17.50;99.90;;;;;;6250144;23;20382;-77
2023/10/03 06:50:00;;;;;;;1.67;1.57;;;17.90;99.90;;;;;;6251200;23;20401;-77
2023/10/03 06:52:28;;;;;;;2.23;2.10;;;18.30;99.90;;;;;;6224400;23;20397;-78
2023/10/03 06:54:55;;;;;;;5.17;4.67;;;18.50;99.90;;;;;;6251357;23;20651;-79
2023/10/03 06:57:22;;;;;;;0.80;0.80;;;18.60;99.90;;;;;;6223662;23;20648;-78
2023/10/03 06:59:49;;;;;;;1.50;1.47;;;18.60;99.90;;;;;;6250604;23;20592;-80
2023/10/03 07:02:18;;;;;;;2.17;2.07;;;18.70;99.90;;;;;;6251117;23;20379;-80
2023/10/03 07:04:45;;;;;;;1.40;1.33;;;18.90;99.90;;;;;;6253058;23;20400;-80
2023/10/03 07:07:12;;;;;;;2.47;2.27;;;18.90;99.90;;;;;;6250368;23;20647;-80
2023/10/03 07:09:39;;;;;;;2.30;2.13;;;19.50;99.90;;;;;;6250128;23;20602;-82
2023/10/03 07:12:08;;;;;;;2.10;2.00;;;19.60;99.90;;;;;;6249794;23;20440;-85
2023/10/03 07:14:36;;;;;;;1.10;1.10;;;19.90;99.90;;;;;;6249623;23;20613;-82
2023/10/03 07:17:04;;;;;;;1.13;1.10;;;20.20;99.90;;;;;;6249572;23;20596;-81
2023/10/03 07:19:31;;;;;;;2.50;2.30;;;20.80;99.90;;;;;;6223418;23;20459;-79
2023/10/03 07:21:59;;;;;;;4.10;1.03;;;21.50;99.90;;;;;;6251829;23;20443;-84
2023/10/03 07:24:26;;;;;;;1.30;1.30;;;22.20;99.90;;;;;;6250904;23;20401;-80
2023/10/03 07:26:53;;;;;;;2.27;2.10;;;23.20;99.90;;;;;;6251965;23;20463;-81
2023/10/03 07:29:21;;;;;;;1.93;1.83;;;24.20;99.90;;;;;;6257977;23;20389;-81
2023/10/03 07:31:49;;;;;;;2.10;1.97;;;24.80;99.90;;;;;;6254416;23;20397;-83
2023/10/03 07:34:18;;;;;;;1.10;1.10;;;25.90;99.90;;;;;;6253457;23;20420;-83
2023/10/03 07:36:45;;;;;;;2.80;2.60;;;25.50;99.90;;;;;;6250679;23;20404;-80
2023/10/03 07:39:15;;;;;;;2.13;1.97;;;26.10;99.90;;;;;;6250637;23;20401;-79
2023/10/03 07:41:42;;;;;;;3.30;3.10;;;26.30;99.90;;;;;;6250842;23;20394;-79
2023/10/03 07:44:10;;;;;;;2.37;2.20;;;26.60;99.90;;;;;;6250297;23;20480;-83
2023/10/03 07:46:37;;;;;;;2.40;2.20;;;27.00;99.90;;;;;;6250745;23;20769;-83
2023/10/03 07:49:05;;;;;;;1.63;1.53;;;27.40;99.90;;;;;;6251784;23;20567;-80
2023/10/03 07:51:35;;;;;;;1.00;1.00;;;27.10;99.90;;;;;;6252876;23;20391;-79
2023/10/03 07:54:03;;;;;;;2.03;1.93;;;27.30;99.90;;;;;;6250704;23;20800;-82
2023/10/03 07:56:30;;;;;;;2.60;1.67;;;28.00;99.80;;;;;;6250225;23;20384;-80
2023/10/03 07:59:04;;;;;;;1.20;1.20;;;28.20;98.60;;;;;;6250415;23;20455;-82
2023/10/03 08:01:32;;;;;;;1.97;1.87;;;28.50;96.60;;;;;;6250504;23;20647;-79
2023/10/03 08:04:08;;;;;;;2.30;1.83;;;28.80;95.80;;;;;;6261160;23;20436;-82
2023/10/03 08:06:37;;;;;;;1.97;1.83;;;28.80;94.70;;;;;;6224505;23;20434;-82
2023/10/03 08:09:04;;;;;;;21.50;2.63;;;28.40;95.20;;;;;;6250583;23;20412;-80
2023/10/03 08:11:32;;;;;;;1.30;1.30;;;28.70;94.90;;;;;;6250089;23;20400;-80
2023/10/03 08:14:11;;;;;;;2.30;2.17;;;29.10;94.20;;;;;;6223738;23;20399;-85
2023/10/03 08:16:42;;;;;;;4.10;3.43;;;28.90;93.70;;;;;;6250195;23;20457;-81
2023/10/03 08:19:21;;;;;;;1.70;1.60;;;28.50;93.20;;;;;;6251269;23;20417;-87
2023/10/03 08:21:49;;;;;;;1.00;1.00;;;28.70;93.30;;;;;;6229068;23;20379;-81
2023/10/03 08:24:19;;;;;;;2.30;2.20;;;29.30;92.50;;;;;;6260092;22;20688;-81
2023/10/03 08:26:46;;;;;;;3.47;3.17;;;29.70;91.90;;;;;;6257445;22;20680;-79
2023/10/03 08:29:23;;;;;;;6.13;3.33;;;29.90;90.80;;;;;;6255186;23;20397;-80
2023/10/03 08:31:57;;;;;;;1.57;1.47;;;29.70;90.60;;;;;;6250806;23;20384;-82
2023/10/03 08:34:29;;;;;;;1.50;1.40;;;29.20;90.60;;;;;;6250179;23;20375;-82
2023/10/03 08:36:59;;;;;;;1.20;1.20;;;29.20;91.00;;;;;;6250496;23;20772;-80
2023/10/03 08:39:32;;;;;;;4.50;4.10;;;29.20;90.60;;;;;;6250399;23;20386;-80
2023/10/03 08:42:13;;;;;;;2.40;1.40;;;29.40;89.20;;;;;;6251096;23;20385;-81
2023/10/03 08:44:51;;;;;;;1.83;1.73;;;28.60;90.30;;;;;;6251565;23;20365;-83
2023/10/03 08:47:28;;;;;;;18.70;3.40;;;28.50;90.80;;;;;;6251083;23;20427;-81
2023/10/03 08:50:11;;;;;;;1.77;1.67;;;28.80;90.90;;;;;;6251135;23;20384;-81
2023/10/03 08:52:49;;;;;;;1.70;1.63;;;29.10;90.50;;;;;;6223853;23;20621;-83
2023/10/03 08:55:20;;;;;;;1.20;1.20;;;29.30;90.20;;;;;;6250657;23;20411;-82
2023/10/03 08:57:48;;;;;;;3.97;3.67;;;29.40;89.00;;;;;;6250040;23;20378;-82
2023/10/03 09:00:25;;;;;;;2.80;2.70;;;29.10;90.10;;;;;;6250206;23;20412;-81
2023/10/03 09:03:09;;;;;;;1.40;1.40;;;29.20;89.20;;;;;;6249024;23;20384;-81
2023/10/03 09:05:41;;;;;;;1.10;1.10;;;28.90;88.80;;;;;;6223005;23;20476;-79
2023/10/03 09:08:13;;;;;;;1.10;1.10;;;29.00;90.00;;;;;;6249484;23;20460;-84
2023/10/03 09:10:51;;;;;;;2.17;2.03;;;29.00;90.10;;;;;;6223250;23;20379;-79
2023/10/03 09:13:25;;;;;;;1.80;1.70;;;28.70;88.70;;;;;;6249822;23;20380;-83
2023/10/03 09:15:59;;;;;;;2.27;1.87;;;28.40;90.20;;;;;;6249846;23;20725;-83
2023/10/03 09:18:43;;;;;;;2.67;2.50;;;28.10;90.90;;;;;;6250224;23;20669;-82
2023/10/03 09:21:23;;;;;;;3.10;2.90;;;27.90;90.70;;;;;;6250064;23;20377;-83
2023/10/03 09:24:09;;;;;;;1.70;1.60;;;27.70;91.10;;;;;;6249914;23;20389;-79
2023/10/03 09:26:47;;;;;;;1.30;1.30;;;27.60;91.20;;;;;;6250013;23;20424;-81
2023/10/03 09:29:29;;;;;;;3.07;2.80;;;27.80;91.10;;;;;;6249976;23;20373;-83
2023/10/03 09:32:13;;;;;;;2.17;2.07;;;27.70;91.20;;;;;;6249946;23;20369;-82
2023/10/03 09:34:46;;;;;;;1.60;1.53;;;27.50;91.50;;;;;;6251082;23;20389;-81
2023/10/03 09:37:17;;;;;;;7.80;3.93;;;27.40;91.60;;;;;;6252378;23;20459;-84
2023/10/03 09:39:51;;;;;;;1.50;1.40;;;27.20;91.60;;;;;;6226067;23;20378;-85
2023/10/03 09:42:23;;;;;;;2.37;2.23;;;27.50;91.80;;;;;;6252498;23;20377;-81
2023/10/03 09:44:57;;;;;;;1.50;1.43;;;27.40;91.20;;;;;;6253700;23;20381;-82
2023/10/03 09:47:30;;;;;;;2.13;2.03;;;27.20;92.00;;;;;;6252915;23;20440;-81
2023/10/03 09:50:08;;;;;;;3.43;3.23;;;27.10;91.80;;;;;;6227384;23;20370;-81
2023/10/03 09:52:37;;;;;;;2.03;1.93;;;27.20;92.10;;;;;;6252671;23;20348;-84
2023/10/03 09:55:21;;;;;;;1.20;1.20;;;26.90;92.00;;;;;;6225776;23;20409;-81
2023/10/03 09:57:55;;;;;;;2.80;2.70;;;27.10;92.20;;;;;;6251762;23;20705;-78
2023/10/03 10:03:13;;;;;;;4.03;3.50;;;27.30;91.60;;;;;;6253817;23;20405;-77
2023/10/03 10:06:12;;;;;;;1.40;1.30;;;27.60;91.20;;;;;;6254022;23;20380;-81
2023/10/03 10:08:58;;;;;;;2.67;2.50;;;27.60;91.10;;;;;;6254036;23;20378;-84
2023/10/03 10:11:30;;;;;;;3.33;3.10;;;27.60;91.10;;;;;;6236534;23;20378;-83
2023/10/03 10:14:08;;;;;;;2.27;2.17;;;27.40;91.10;;;;;;6259270;22;20413;-83
2023/10/03 10:17:04;;;;;;;1.33;1.33;;;27.60;91.20;;;;;;6259252;22;20570;-83
2023/10/03 10:20:09;;;;;;;1.47;1.40;;;27.50;91.10;;;;;;6225076;23;20472;-86
2023/10/03 10:23:04;;;;;;;2.13;2.03;;;27.60;90.90;;;;;;6251687;23;20408;-82
2023/10/03 10:25:41;;;;;;;2.43;2.23;;;27.60;90.30;;;;;;6238405;23;20400;-81
2023/10/03 10:28:10;;;;;;;3.37;3.13;;;27.60;90.00;;;;;;6252049;23;20498;-82
2023/10/03 10:31:01;;;;;;;1.87;1.77;;;27.60;90.90;;;;;;6251856;23;20523;-83
2023/10/03 10:33:28;;;;;;;1.80;1.70;;;27.40;90.90;;;;;;6225169;23;20448;-82
2023/10/03 10:36:03;;;;;;;4.27;3.90;;;27.40;90.80;;;;;;6251578;23;20448;-79
2023/10/03 10:38:33;;;;;;;1.60;1.53;;;27.40;90.80;;;;;;6256844;23;20369;-80
2023/10/03 10:44:09;;;;;;;2.63;2.53;;;27.40;90.90;;;;;;6267048;22;20374;-83
2023/10/03 10:46:45;;;;;;;2.90;2.70;;;27.60;91.00;;;;;;6267296;22;20405;-80
2023/10/03 10:49:30;;;;;;;1.83;1.73;;;27.70;91.00;;;;;;6263334;23;20543;-80
2023/10/03 10:51:59;;;;;;;2.43;2.33;;;27.60;91.00;;;;;;6261423;23;20393;-82
2023/10/03 10:54:28;;;;;;;2.03;1.93;;;27.70;90.20;;;;;;6226252;23;20449;-79
2023/10/03 10:57:04;;;;;;;2.20;2.10;;;28.00;90.40;;;;;;6224603;23;20409;-81
2023/10/03 10:59:40;;;;;;;2.03;1.93;;;28.10;90.40;;;;;;6250613;23;20389;-80
2023/10/03 11:02:18;;;;;;;3.53;3.33;;;28.20;90.20;;;;;;6224779;23;20408;-84
2023/10/03 11:04:58;;;;;;;1.60;1.50;;;28.30;90.00;;;;;;6252840;23;20480;-84
2023/10/03 11:07:29;;;;;;;2.27;2.07;;;28.00;90.20;;;;;;6223837;23;20496;-79
2023/10/03 11:10:04;;;;;;;1.63;1.53;;;28.10;90.10;;;;;;6250744;23;20389;-79
2023/10/03 11:12:59;;;;;;;1.00;1.00;;;28.20;90.00;;;;;;6251465;23;20404;-81
2023/10/03 11:15:26;;;;;;;1.30;1.30;;;28.30;89.70;;;;;;6251034;23;20416;-83
2023/10/03 11:17:53;;;;;;;2.00;1.90;;;28.30;89.60;;;;;;6224773;23;20393;-83
2023/10/03 11:20:20;;;;;;;3.67;3.43;;;28.20;89.60;;;;;;6250368;23;20500;-83
2023/10/03 11:22:47;;;;;;;2.17;2.07;;;28.20;89.80;;;;;;6251802;23;20397;-82
2023/10/03 11:25:16;;;;;;;1.20;1.20;;;28.20;90.10;;;;;;6253808;23;20396;-83
2023/10/03 11:27:42;;;;;;;1.40;1.30;;;28.00;89.00;;;;;;6228465;23;20448;-82
2023/10/03 11:30:14;;;;;;;1.70;1.60;;;28.10;89.20;;;;;;6256485;23;20404;-82
2023/10/03 11:32:44;;;;;;;2.50;2.30;;;27.90;89.60;;;;;;6232905;23;20697;-79
2023/10/03 11:35:21;;;;;;;1.40;1.30;;;28.00;89.90;;;;;;6252095;23;20621;-82
2023/10/03 11:37:51;;;;;;;1.83;1.73;;;28.10;90.20;;;;;;6253047;23;20388;-85
2023/10/03 11:40:20;;;;;;;1.73;1.63;;;28.10;89.30;;;;;;6252018;23;20612;-81
2023/10/03 11:42:54;;;;;;;1.30;1.30;;;28.00;87.80;;;;;;6251045;23;20436;-85
2023/10/03 11:45:29;;;;;;;0.90;0.90;;;27.90;87.30;;;;;;6224778;23;20603;-82
2023/10/03 11:48:10;;;;;;;1.73;1.63;;;27.90;84.00;;;;;;6204997;23;20826;-82
2023/10/03 11:50:38;;;;;;;0.90;0.90;;;27.90;80.80;;;;;;6250660;23;20422;-84
2023/10/03 11:53:08;;;;;;;1.40;1.40;;;27.80;81.10;;;;;;6225456;23;20389;-83
2023/10/03 11:55:36;;;;;;;1.57;1.47;;;27.70;80.20;;;;;;6251654;23;20484;-80
2023/10/03 11:58:05;;;;;;;1.53;1.43;;;27.50;80.40;;;;;;6250812;23;20411;-80
2023/10/03 12:00:33;;;;;;;3.30;3.10;;;27.60;79.80;;;;;;6250865;23;20389;-82
2023/10/03 12:03:04;;;;;;;1.20;1.20;;;27.40;79.80;;;;;;6251338;23;20396;-79
2023/10/03 12:05:32;;;;;;;2.50;2.30;;;27.50;80.80;;;;;;6224647;23;20610;-83
2023/10/03 12:07:59;;;;;;;1.10;1.10;;;27.40;80.00;;;;;;6199916;23;20452;-82
2023/10/03 12:10:26;;;;;;;1.57;1.50;;;27.40;80.10;;;;;;6250613;23;20408;-83
2023/10/03 12:12:53;;;;;;;0.90;0.90;;;27.50;80.40;;;;;;6251452;23;20400;-81
2023/10/03 12:15:22;;;;;;;0.90;0.90;;;27.40;80.50;;;;;;6223769;23;20417;-81
2023/10/03 12:17:51;;;;;;;2.80;2.70;;;27.30;80.50;;;;;;6249661;23;20413;-84
2023/10/03 12:20:20;;;;;;;1.97;1.87;;;27.20;81.70;;;;;;6251197;23;20466;-83
2023/10/03 12:22:50;;;;;;;1.20;1.20;;;27.20;82.00;;;;;;6251892;23;20436;-81
2023/10/03 12:25:18;;;;;;;1.63;1.53;;;27.20;82.00;;;;;;6250543;23;20366;-79
2023/10/03 12:27:46;;;;;;;2.70;2.07;;;27.20;82.50;;;;;;6249820;23;20411;-82
2023/10/03 12:30:15;;;;;;;1.47;1.37;;;27.30;82.50;;;;;;6250468;23;20404;-83
2023/10/03 12:32:47;;;;;;;2.37;2.23;;;27.30;82.80;;;;;;6251498;23;20464;-84
2023/10/03 12:35:16;;;;;;;1.30;1.30;;;27.50;82.70;;;;;;6251537;23;20392;-83
2023/10/03 12:37:46;;;;;;;2.33;2.13;;;27.50;83.00;;;;;;6228079;23;20405;-79
2023/10/03 12:40:18;;;;;;;1.93;1.83;;;27.30;82.10;;;;;;6253169;23;20431;-83
2023/10/03 12:42:51;;;;;;;2.80;2.60;;;27.50;83.80;;;;;;6256336;23;20393;-83
2023/10/03 12:45:22;;;;;;;2.43;2.23;;;27.40;83.20;;;;;;6254922;23;20401;-81
2023/10/03 12:47:54;;;;;;;2.43;2.23;;;27.20;84.40;;;;;;6256353;23;20428;-83
2023/10/03 12:50:27;;;;;;;1.90;1.43;;;27.10;84.90;;;;;;6256604;23;20355;-84
2023/10/03 12:52:55;;;;;;;2.10;2.00;;;26.80;85.80;;;;;;6222518;23;20377;-79
2023/10/03 12:55:27;;;;;;;1.50;1.50;;;26.90;86.40;;;;;;6249939;23;20420;-80
2023/10/03 12:57:59;;;;;;;4.00;3.70;;;26.50;86.90;;;;;;6250836;23;20360;-81
2023/10/03 13:00:26;;;;;;;1.90;1.80;;;26.50;86.70;;;;;;6250388;23;20767;-81
2023/10/03 13:02:56;;;;;;;2.50;2.27;;;26.50;86.60;;;;;;6249137;23;20363;-79
2023/10/03 13:05:23;;;;;;;4.30;1.63;;;26.60;86.30;;;;;;6226530;23;20402;-85
2023/10/03 13:07:52;;;;;;;1.20;1.10;;;26.70;86.20;;;;;;6233719;23;20501;-82
2023/10/03 13:10:21;;;;;;;1.97;1.87;;;26.80;86.00;;;;;;6233243;23;20417;-82
2023/10/03 13:12:49;;;;;;;1.70;1.60;;;26.80;86.90;;;;;;6254098;23;20396;-84